sensor_id;sensor_type;location;lat;lon;timestamp;P1;durP1;ratioP1;P2;durP2;ratioP2
15516;SDS011;7860;52.030;5.572;2022-11-15T00:02:47;38.42;;;19.33;;
15516;SDS011;7860;52.030;5.572;2022-11-15T00:02:47;39.42;;;19.53;;
15516;SDS011;7860;52.030;5.572;2022-11-15T00:02:58;39.74;;;19.16;;
15516;SDS011;7860;52.030;5.572;2022-11-15T00:03:58;40.32;;;18.76;;
15516;SDS011;7860;52.030;5.572;2022-11-15T00:04:58;39.72;;;18.50;;
15516;SDS011;7860;52.030;5.572;2022-11-15T00:06:00;42.57;;;19.60;;
15516;SDS011;7860;52.030;5.572;2022-11-15T00:06:59;41.09;;;19.94;;
15516;SDS011;7860;52.030;5.572;2022-11-15T00:08:00;42.12;;;19.60;;
15516;SDS011;7860;52.030;5.572;2022-11-15T00:09:00;43.13;;;20.44;;
15516;SDS011;7860;52.030;5.572;2022-11-15T00:10:01;43.87;;;20.28;;
15516;SDS011;7860;52.030;5.572;2022-11-15T00:11:02;46.65;;;20.40;;
15516;SDS011;7860;52.030;5.572;2022-11-15T00:12:02;48.07;;;20.73;;
15516;SDS011;7860;52.030;5.572;2022-11-15T00:13:04;42.82;;;20.25;;
15516;SDS011;7860;52.030;5.572;2022-11-15T00:14:02;49.62;;;21.42;;
15516;SDS011;7860;52.030;5.572;2022-11-15T00:15:04;50.94;;;20.86;;
15516;SDS011;7860;52.030;5.572;2022-11-15T00:16:04;47.78;;;21.14;;
15516;SDS011;7860;52.030;5.572;2022-11-15T00:17:04;44.98;;;20.66;;
15516;SDS011;7860;52.030;5.572;2022-11-15T00:18:05;44.44;;;19.83;;
15516;SDS011;7860;52.030;5.572;2022-11-15T00:19:04;47.01;;;20.48;;
15516;SDS011;7860;52.030;5.572;2022-11-15T00:20:06;43.39;;;20.41;;
15516;SDS011;7860;52.030;5.572;2022-11-15T00:21:06;47.14;;;20.70;;
15516;SDS011;7860;52.030;5.572;2022-11-15T00:22:05;47.86;;;20.26;;
15516;SDS011;7860;52.030;5.572;2022-11-15T00:23:06;46.10;;;20.46;;
15516;SDS011;7860;52.030;5.572;2022-11-15T00:24:06;47.30;;;21.07;;
15516;SDS011;7860;52.030;5.572;2022-11-15T00:25:07;48.63;;;20.96;;
15516;SDS011;7860;52.030;5.572;2022-11-15T00:26:09;50.88;;;20.88;;
15516;SDS011;7860;52.030;5.572;2022-11-15T00:27:08;48.18;;;20.73;;
15516;SDS011;7860;52.030;5.572;2022-11-15T00:28:08;46.78;;;20.13;;
15516;SDS011;7860;52.030;5.572;2022-11-15T00:29:09;41.78;;;20.80;;
15516;SDS011;7860;52.030;5.572;2022-11-15T00:30:09;46.25;;;21.00;;
15516;SDS011;7860;52.030;5.572;2022-11-15T00:31:11;50.64;;;20.58;;
15516;SDS011;7860;52.030;5.572;2022-11-15T00:32:10;47.40;;;20.48;;
15516;SDS011;7860;52.030;5.572;2022-11-15T00:33:10;46.88;;;21.23;;
15516;SDS011;7860;52.030;5.572;2022-11-15T00:34:11;47.17;;;21.64;;
15516;SDS011;7860;52.030;5.572;2022-11-15T00:35:12;47.56;;;20.68;;
15516;SDS011;7860;52.030;5.572;2022-11-15T00:36:12;44.53;;;19.93;;
15516;SDS011;7860;52.030;5.572;2022-11-15T00:37:12;49.26;;;20.32;;
15516;SDS011;7860;52.030;5.572;2022-11-15T00:38:13;45.18;;;21.28;;
15516;SDS011;7860;52.030;5.572;2022-11-15T00:39:13;48.08;;;20.65;;
15516;SDS011;7860;52.030;5.572;2022-11-15T00:40:14;45.38;;;20.74;;
15516;SDS011;7860;52.030;5.572;2022-11-15T00:41:14;49.88;;;21.15;;
15516;SDS011;7860;52.030;5.572;2022-11-15T00:42:15;48.99;;;21.41;;
15516;SDS011;7860;52.030;5.572;2022-11-15T00:43:15;42.87;;;19.99;;
15516;SDS011;7860;52.030;5.572;2022-11-15T00:44:16;44.90;;;20.38;;
15516;SDS011;7860;52.030;5.572;2022-11-15T00:45:16;50.72;;;21.14;;
15516;SDS011;7860;52.030;5.572;2022-11-15T00:46:17;52.10;;;21.56;;
15516;SDS011;7860;52.030;5.572;2022-11-15T00:47:17;46.64;;;20.66;;
15516;SDS011;7860;52.030;5.572;2022-11-15T00:48:17;48.81;;;21.25;;
15516;SDS011;7860;52.030;5.572;2022-11-15T00:49:17;48.16;;;21.81;;
15516;SDS011;7860;52.030;5.572;2022-11-15T00:50:18;53.63;;;21.87;;
15516;SDS011;7860;52.030;5.572;2022-11-15T00:51:17;49.78;;;21.08;;
15516;SDS011;7860;52.030;5.572;2022-11-15T00:52:18;48.38;;;20.51;;
15516;SDS011;7860;52.030;5.572;2022-11-15T00:53:19;48.08;;;21.70;;
15516;SDS011;7860;52.030;5.572;2022-11-15T00:54:19;48.73;;;20.95;;
15516;SDS011;7860;52.030;5.572;2022-11-15T00:55:20;49.51;;;21.21;;
15516;SDS011;7860;52.030;5.572;2022-11-15T00:56:21;47.72;;;21.47;;
15516;SDS011;7860;52.030;5.572;2022-11-15T00:57:21;46.50;;;20.84;;
15516;SDS011;7860;52.030;5.572;2022-11-15T00:58:22;52.74;;;22.42;;
15516;SDS011;7860;52.030;5.572;2022-11-15T00:59:22;52.54;;;22.33;;
15516;SDS011;7860;52.030;5.572;2022-11-15T01:00:23;56.01;;;22.63;;
15516;SDS011;7860;52.030;5.572;2022-11-15T01:01:23;51.72;;;21.88;;
15516;SDS011;7860;52.030;5.572;2022-11-15T01:02:24;51.21;;;22.49;;
15516;SDS011;7860;52.030;5.572;2022-11-15T01:03:24;54.50;;;24.17;;
15516;SDS011;7860;52.030;5.572;2022-11-15T01:04:25;54.99;;;22.36;;
15516;SDS011;7860;52.030;5.572;2022-11-15T01:05:25;52.90;;;23.81;;
15516;SDS011;7860;52.030;5.572;2022-11-15T01:06:26;53.14;;;22.56;;
15516;SDS011;7860;52.030;5.572;2022-11-15T01:07:26;56.77;;;24.24;;
15516;SDS011;7860;52.030;5.572;2022-11-15T01:08:27;53.53;;;23.59;;
15516;SDS011;7860;52.030;5.572;2022-11-15T01:09:27;58.23;;;24.03;;
15516;SDS011;7860;52.030;5.572;2022-11-15T01:10:27;50.98;;;23.42;;
15516;SDS011;7860;52.030;5.572;2022-11-15T01:11:28;50.87;;;23.34;;
15516;SDS011;7860;52.030;5.572;2022-11-15T01:12:29;56.05;;;24.40;;
15516;SDS011;7860;52.030;5.572;2022-11-15T01:13:30;60.47;;;23.75;;
15516;SDS011;7860;52.030;5.572;2022-11-15T01:14:30;55.17;;;23.89;;
15516;SDS011;7860;52.030;5.572;2022-11-15T01:15:31;58.53;;;23.77;;
15516;SDS011;7860;52.030;5.572;2022-11-15T01:16:31;57.50;;;24.18;;
15516;SDS011;7860;52.030;5.572;2022-11-15T01:17:31;52.82;;;23.41;;
15516;SDS011;7860;52.030;5.572;2022-11-15T01:18:32;58.24;;;25.11;;
15516;SDS011;7860;52.030;5.572;2022-11-15T01:19:32;58.11;;;24.20;;
15516;SDS011;7860;52.030;5.572;2022-11-15T01:20:32;56.38;;;24.40;;
15516;SDS011;7860;52.030;5.572;2022-11-15T01:21:33;66.83;;;25.13;;
15516;SDS011;7860;52.030;5.572;2022-11-15T01:22:33;58.09;;;23.64;;
15516;SDS011;7860;52.030;5.572;2022-11-15T01:23:34;64.47;;;24.51;;
15516;SDS011;7860;52.030;5.572;2022-11-15T01:24:35;55.86;;;23.64;;
15516;SDS011;7860;52.030;5.572;2022-11-15T01:25:35;58.16;;;24.48;;
15516;SDS011;7860;52.030;5.572;2022-11-15T01:26:36;57.31;;;24.54;;
15516;SDS011;7860;52.030;5.572;2022-11-15T01:27:36;60.16;;;25.15;;
15516;SDS011;7860;52.030;5.572;2022-11-15T01:28:38;67.16;;;25.02;;
15516;SDS011;7860;52.030;5.572;2022-11-15T01:29:37;65.75;;;25.07;;
15516;SDS011;7860;52.030;5.572;2022-11-15T01:30:38;62.56;;;24.64;;
15516;SDS011;7860;52.030;5.572;2022-11-15T01:31:39;61.94;;;24.83;;
15516;SDS011;7860;52.030;5.572;2022-11-15T01:32:39;63.08;;;25.02;;
15516;SDS011;7860;52.030;5.572;2022-11-15T01:33:40;62.61;;;25.38;;
15516;SDS011;7860;52.030;5.572;2022-11-15T01:34:40;56.37;;;24.68;;
15516;SDS011;7860;52.030;5.572;2022-11-15T01:35:41;62.30;;;25.04;;
15516;SDS011;7860;52.030;5.572;2022-11-15T01:36:41;61.08;;;24.36;;
15516;SDS011;7860;52.030;5.572;2022-11-15T01:37:42;65.11;;;25.27;;
15516;SDS011;7860;52.030;5.572;2022-11-15T01:38:43;59.39;;;24.16;;
15516;SDS011;7860;52.030;5.572;2022-11-15T01:39:43;67.52;;;25.24;;
15516;SDS011;7860;52.030;5.572;2022-11-15T01:40:43;66.38;;;24.96;;
15516;SDS011;7860;52.030;5.572;2022-11-15T01:41:44;60.34;;;24.94;;
15516;SDS011;7860;52.030;5.572;2022-11-15T01:42:45;62.69;;;24.85;;
15516;SDS011;7860;52.030;5.572;2022-11-15T01:43:46;60.56;;;25.18;;
15516;SDS011;7860;52.030;5.572;2022-11-15T01:44:46;60.93;;;25.02;;
15516;SDS011;7860;52.030;5.572;2022-11-15T01:45:46;56.77;;;24.81;;
15516;SDS011;7860;52.030;5.572;2022-11-15T01:46:47;54.85;;;23.82;;
15516;SDS011;7860;52.030;5.572;2022-11-15T01:47:48;53.13;;;24.32;;
15516;SDS011;7860;52.030;5.572;2022-11-15T01:48:48;64.14;;;24.24;;
15516;SDS011;7860;52.030;5.572;2022-11-15T01:49:50;56.22;;;24.32;;
15516;SDS011;7860;52.030;5.572;2022-11-15T01:50:49;61.06;;;24.59;;
15516;SDS011;7860;52.030;5.572;2022-11-15T01:51:50;58.08;;;24.29;;
15516;SDS011;7860;52.030;5.572;2022-11-15T01:52:50;55.30;;;23.98;;
15516;SDS011;7860;52.030;5.572;2022-11-15T01:53:52;62.35;;;24.76;;
15516;SDS011;7860;52.030;5.572;2022-11-15T01:54:53;56.70;;;23.89;;
15516;SDS011;7860;52.030;5.572;2022-11-15T01:55:52;58.84;;;24.84;;
15516;SDS011;7860;52.030;5.572;2022-11-15T01:56:55;58.43;;;24.31;;
15516;SDS011;7860;52.030;5.572;2022-11-15T01:57:54;61.19;;;25.15;;
15516;SDS011;7860;52.030;5.572;2022-11-15T01:58:53;58.11;;;24.72;;
15516;SDS011;7860;52.030;5.572;2022-11-15T01:59:54;60.96;;;25.21;;
15516;SDS011;7860;52.030;5.572;2022-11-15T02:00:54;55.27;;;24.23;;
15516;SDS011;7860;52.030;5.572;2022-11-15T02:01:55;55.03;;;23.83;;
15516;SDS011;7860;52.030;5.572;2022-11-15T02:02:55;62.46;;;24.73;;
15516;SDS011;7860;52.030;5.572;2022-11-15T02:03:56;56.61;;;24.82;;
15516;SDS011;7860;52.030;5.572;2022-11-15T02:04:56;53.06;;;24.17;;
15516;SDS011;7860;52.030;5.572;2022-11-15T02:05:56;53.87;;;24.58;;
15516;SDS011;7860;52.030;5.572;2022-11-15T02:06:57;54.49;;;24.29;;
15516;SDS011;7860;52.030;5.572;2022-11-15T02:07:57;54.39;;;23.62;;
15516;SDS011;7860;52.030;5.572;2022-11-15T02:08:57;51.50;;;24.07;;
15516;SDS011;7860;52.030;5.572;2022-11-15T02:09:58;56.86;;;24.87;;
15516;SDS011;7860;52.030;5.572;2022-11-15T02:10:58;54.67;;;24.17;;
15516;SDS011;7860;52.030;5.572;2022-11-15T02:11:58;54.99;;;24.49;;
15516;SDS011;7860;52.030;5.572;2022-11-15T02:12:59;55.22;;;23.95;;
15516;SDS011;7860;52.030;5.572;2022-11-15T02:13:59;52.00;;;23.86;;
15516;SDS011;7860;52.030;5.572;2022-11-15T02:15:00;52.52;;;23.85;;
15516;SDS011;7860;52.030;5.572;2022-11-15T02:16:04;52.88;;;23.57;;
15516;SDS011;7860;52.030;5.572;2022-11-15T02:17:06;56.94;;;24.22;;
15516;SDS011;7860;52.030;5.572;2022-11-15T02:18:06;51.96;;;23.95;;
15516;SDS011;7860;52.030;5.572;2022-11-15T02:19:07;55.97;;;24.01;;
15516;SDS011;7860;52.030;5.572;2022-11-15T02:20:10;50.29;;;24.06;;
15516;SDS011;7860;52.030;5.572;2022-11-15T02:21:07;49.52;;;23.54;;
15516;SDS011;7860;52.030;5.572;2022-11-15T02:22:07;49.74;;;23.46;;
15516;SDS011;7860;52.030;5.572;2022-11-15T02:23:16;53.63;;;23.33;;
15516;SDS011;7860;52.030;5.572;2022-11-15T02:24:11;52.62;;;23.77;;
15516;SDS011;7860;52.030;5.572;2022-11-15T02:25:10;53.48;;;23.62;;
15516;SDS011;7860;52.030;5.572;2022-11-15T02:26:14;52.41;;;23.17;;
15516;SDS011;7860;52.030;5.572;2022-11-15T02:27:12;44.40;;;23.01;;
15516;SDS011;7860;52.030;5.572;2022-11-15T02:28:11;47.57;;;22.09;;
15516;SDS011;7860;52.030;5.572;2022-11-15T02:29:08;48.58;;;22.87;;
15516;SDS011;7860;52.030;5.572;2022-11-15T02:30:24;43.89;;;22.12;;
15516;SDS011;7860;52.030;5.572;2022-11-15T02:31:10;51.61;;;23.02;;
15516;SDS011;7860;52.030;5.572;2022-11-15T02:32:11;51.13;;;23.77;;
15516;SDS011;7860;52.030;5.572;2022-11-15T02:33:13;46.68;;;23.10;;
15516;SDS011;7860;52.030;5.572;2022-11-15T02:34:12;44.97;;;22.18;;
15516;SDS011;7860;52.030;5.572;2022-11-15T02:35:12;49.42;;;23.91;;
15516;SDS011;7860;52.030;5.572;2022-11-15T02:36:14;46.58;;;22.42;;
15516;SDS011;7860;52.030;5.572;2022-11-15T02:37:14;46.19;;;22.37;;
15516;SDS011;7860;52.030;5.572;2022-11-15T02:38:16;49.49;;;23.34;;
15516;SDS011;7860;52.030;5.572;2022-11-15T02:39:15;45.06;;;21.04;;
15516;SDS011;7860;52.030;5.572;2022-11-15T02:40:17;45.22;;;20.37;;
15516;SDS011;7860;52.030;5.572;2022-11-15T02:41:14;38.07;;;19.66;;
15516;SDS011;7860;52.030;5.572;2022-11-15T02:42:17;43.37;;;20.38;;
15516;SDS011;7860;52.030;5.572;2022-11-15T02:43:16;39.05;;;19.52;;
15516;SDS011;7860;52.030;5.572;2022-11-15T02:44:17;41.12;;;19.62;;
15516;SDS011;7860;52.030;5.572;2022-11-15T02:45:17;39.30;;;19.72;;
15516;SDS011;7860;52.030;5.572;2022-11-15T02:46:18;39.91;;;19.16;;
15516;SDS011;7860;52.030;5.572;2022-11-15T02:47:17;38.85;;;18.50;;
15516;SDS011;7860;52.030;5.572;2022-11-15T02:48:18;36.90;;;19.04;;
15516;SDS011;7860;52.030;5.572;2022-11-15T02:49:18;37.95;;;18.64;;
15516;SDS011;7860;52.030;5.572;2022-11-15T02:50:20;39.79;;;18.93;;
15516;SDS011;7860;52.030;5.572;2022-11-15T02:51:19;35.31;;;18.58;;
15516;SDS011;7860;52.030;5.572;2022-11-15T02:52:20;36.52;;;18.11;;
15516;SDS011;7860;52.030;5.572;2022-11-15T02:53:23;34.31;;;17.81;;
15516;SDS011;7860;52.030;5.572;2022-11-15T02:54:22;37.06;;;19.14;;
15516;SDS011;7860;52.030;5.572;2022-11-15T02:55:25;37.53;;;19.12;;
15516;SDS011;7860;52.030;5.572;2022-11-15T02:56:22;34.38;;;17.65;;
15516;SDS011;7860;52.030;5.572;2022-11-15T02:57:26;34.46;;;17.93;;
15516;SDS011;7860;52.030;5.572;2022-11-15T02:58:35;36.19;;;17.92;;
15516;SDS011;7860;52.030;5.572;2022-11-15T02:59:29;35.06;;;18.59;;
15516;SDS011;7860;52.030;5.572;2022-11-15T03:00:24;32.93;;;17.28;;
15516;SDS011;7860;52.030;5.572;2022-11-15T03:01:27;34.01;;;17.42;;
15516;SDS011;7860;52.030;5.572;2022-11-15T03:02:28;32.49;;;17.18;;
15516;SDS011;7860;52.030;5.572;2022-11-15T03:03:29;33.97;;;17.72;;
15516;SDS011;7860;52.030;5.572;2022-11-15T03:04:27;33.39;;;17.40;;
15516;SDS011;7860;52.030;5.572;2022-11-15T03:05:29;34.38;;;17.23;;
15516;SDS011;7860;52.030;5.572;2022-11-15T03:06:28;31.56;;;17.17;;
15516;SDS011;7860;52.030;5.572;2022-11-15T03:07:28;33.96;;;17.66;;
15516;SDS011;7860;52.030;5.572;2022-11-15T03:08:29;32.11;;;17.08;;
15516;SDS011;7860;52.030;5.572;2022-11-15T03:09:29;33.58;;;18.20;;
15516;SDS011;7860;52.030;5.572;2022-11-15T03:10:30;35.02;;;18.13;;
15516;SDS011;7860;52.030;5.572;2022-11-15T03:11:28;33.92;;;17.53;;
15516;SDS011;7860;52.030;5.572;2022-11-15T03:12:30;35.44;;;16.69;;
15516;SDS011;7860;52.030;5.572;2022-11-15T03:13:30;34.34;;;16.87;;
15516;SDS011;7860;52.030;5.572;2022-11-15T03:14:32;32.31;;;17.15;;
15516;SDS011;7860;52.030;5.572;2022-11-15T03:15:31;30.62;;;16.64;;
15516;SDS011;7860;52.030;5.572;2022-11-15T03:16:33;32.78;;;16.95;;
15516;SDS011;7860;52.030;5.572;2022-11-15T03:17:33;28.04;;;16.65;;
15516;SDS011;7860;52.030;5.572;2022-11-15T03:18:32;32.64;;;16.63;;
15516;SDS011;7860;52.030;5.572;2022-11-15T03:19:32;31.02;;;16.85;;
15516;SDS011;7860;52.030;5.572;2022-11-15T03:20:32;29.36;;;16.69;;
15516;SDS011;7860;52.030;5.572;2022-11-15T03:21:33;29.07;;;16.75;;
15516;SDS011;7860;52.030;5.572;2022-11-15T03:22:34;30.48;;;16.64;;
15516;SDS011;7860;52.030;5.572;2022-11-15T03:23:34;29.40;;;16.16;;
15516;SDS011;7860;52.030;5.572;2022-11-15T03:24:34;30.94;;;16.81;;
15516;SDS011;7860;52.030;5.572;2022-11-15T03:25:36;31.31;;;16.84;;
15516;SDS011;7860;52.030;5.572;2022-11-15T03:26:36;30.33;;;16.33;;
15516;SDS011;7860;52.030;5.572;2022-11-15T03:27:38;29.62;;;17.12;;
15516;SDS011;7860;52.030;5.572;2022-11-15T03:28:37;29.47;;;16.14;;
15516;SDS011;7860;52.030;5.572;2022-11-15T03:29:37;31.98;;;16.81;;
15516;SDS011;7860;52.030;5.572;2022-11-15T03:30:37;31.09;;;16.65;;
15516;SDS011;7860;52.030;5.572;2022-11-15T03:31:38;28.54;;;16.36;;
15516;SDS011;7860;52.030;5.572;2022-11-15T03:32:38;28.34;;;15.72;;
15516;SDS011;7860;52.030;5.572;2022-11-15T03:33:38;28.62;;;15.92;;
15516;SDS011;7860;52.030;5.572;2022-11-15T03:34:39;28.96;;;15.54;;
15516;SDS011;7860;52.030;5.572;2022-11-15T03:35:40;29.28;;;16.22;;
15516;SDS011;7860;52.030;5.572;2022-11-15T03:36:39;28.03;;;16.15;;
15516;SDS011;7860;52.030;5.572;2022-11-15T03:37:42;29.00;;;16.14;;
15516;SDS011;7860;52.030;5.572;2022-11-15T03:38:40;29.19;;;16.71;;
15516;SDS011;7860;52.030;5.572;2022-11-15T03:39:40;28.89;;;16.67;;
15516;SDS011;7860;52.030;5.572;2022-11-15T03:40:42;27.81;;;15.46;;
15516;SDS011;7860;52.030;5.572;2022-11-15T03:41:42;30.24;;;16.18;;
15516;SDS011;7860;52.030;5.572;2022-11-15T03:42:43;28.22;;;15.77;;
15516;SDS011;7860;52.030;5.572;2022-11-15T03:43:43;30.66;;;16.61;;
15516;SDS011;7860;52.030;5.572;2022-11-15T03:44:43;26.52;;;15.85;;
15516;SDS011;7860;52.030;5.572;2022-11-15T03:45:43;30.19;;;16.71;;
15516;SDS011;7860;52.030;5.572;2022-11-15T03:46:45;33.53;;;17.00;;
15516;SDS011;7860;52.030;5.572;2022-11-15T03:47:43;29.27;;;16.50;;
15516;SDS011;7860;52.030;5.572;2022-11-15T03:48:45;31.93;;;16.71;;
15516;SDS011;7860;52.030;5.572;2022-11-15T03:49:44;29.59;;;17.17;;
15516;SDS011;7860;52.030;5.572;2022-11-15T03:50:44;30.77;;;17.21;;
15516;SDS011;7860;52.030;5.572;2022-11-15T03:51:44;32.05;;;17.89;;
15516;SDS011;7860;52.030;5.572;2022-11-15T03:52:46;31.34;;;17.04;;
15516;SDS011;7860;52.030;5.572;2022-11-15T03:53:46;32.83;;;17.26;;
15516;SDS011;7860;52.030;5.572;2022-11-15T03:54:47;33.65;;;18.00;;
15516;SDS011;7860;52.030;5.572;2022-11-15T03:55:47;32.36;;;16.85;;
15516;SDS011;7860;52.030;5.572;2022-11-15T03:56:47;30.76;;;18.24;;
15516;SDS011;7860;52.030;5.572;2022-11-15T03:57:48;31.72;;;17.92;;
15516;SDS011;7860;52.030;5.572;2022-11-15T03:58:48;32.79;;;17.64;;
15516;SDS011;7860;52.030;5.572;2022-11-15T03:59:48;32.12;;;18.15;;
15516;SDS011;7860;52.030;5.572;2022-11-15T04:00:49;33.50;;;18.06;;
15516;SDS011;7860;52.030;5.572;2022-11-15T04:01:49;33.27;;;18.58;;
15516;SDS011;7860;52.030;5.572;2022-11-15T04:02:49;32.59;;;17.12;;
15516;SDS011;7860;52.030;5.572;2022-11-15T04:03:49;34.55;;;18.32;;
15516;SDS011;7860;52.030;5.572;2022-11-15T04:04:50;34.56;;;18.20;;
15516;SDS011;7860;52.030;5.572;2022-11-15T04:05:51;34.03;;;18.99;;
15516;SDS011;7860;52.030;5.572;2022-11-15T04:06:51;35.84;;;18.81;;
15516;SDS011;7860;52.030;5.572;2022-11-15T04:07:52;34.25;;;18.82;;
15516;SDS011;7860;52.030;5.572;2022-11-15T04:08:52;37.64;;;18.51;;
15516;SDS011;7860;52.030;5.572;2022-11-15T04:09:52;34.64;;;18.18;;
15516;SDS011;7860;52.030;5.572;2022-11-15T04:10:53;37.83;;;19.05;;
15516;SDS011;7860;52.030;5.572;2022-11-15T04:11:53;34.62;;;18.25;;
15516;SDS011;7860;52.030;5.572;2022-11-15T04:12:53;34.81;;;17.46;;
15516;SDS011;7860;52.030;5.572;2022-11-15T04:13:54;32.95;;;18.47;;
15516;SDS011;7860;52.030;5.572;2022-11-15T04:14:54;38.17;;;18.29;;
15516;SDS011;7860;52.030;5.572;2022-11-15T04:15:55;34.96;;;18.47;;
15516;SDS011;7860;52.030;5.572;2022-11-15T04:16:55;38.68;;;18.57;;
15516;SDS011;7860;52.030;5.572;2022-11-15T04:17:56;36.41;;;19.03;;
15516;SDS011;7860;52.030;5.572;2022-11-15T04:18:56;36.97;;;18.67;;
15516;SDS011;7860;52.030;5.572;2022-11-15T04:19:56;37.53;;;18.85;;
15516;SDS011;7860;52.030;5.572;2022-11-15T04:20:56;33.92;;;18.62;;
15516;SDS011;7860;52.030;5.572;2022-11-15T04:21:57;34.37;;;18.63;;
15516;SDS011;7860;52.030;5.572;2022-11-15T04:22:58;33.67;;;18.14;;
15516;SDS011;7860;52.030;5.572;2022-11-15T04:23:57;34.07;;;17.96;;
15516;SDS011;7860;52.030;5.572;2022-11-15T04:24:57;34.60;;;18.43;;
15516;SDS011;7860;52.030;5.572;2022-11-15T04:25:59;34.05;;;18.00;;
15516;SDS011;7860;52.030;5.572;2022-11-15T04:26:58;32.00;;;18.08;;
15516;SDS011;7860;52.030;5.572;2022-11-15T04:27:59;32.03;;;17.56;;
15516;SDS011;7860;52.030;5.572;2022-11-15T04:28:59;34.66;;;17.95;;
15516;SDS011;7860;52.030;5.572;2022-11-15T04:30:00;36.49;;;17.80;;
15516;SDS011;7860;52.030;5.572;2022-11-15T04:31:00;30.90;;;17.88;;
15516;SDS011;7860;52.030;5.572;2022-11-15T04:32:00;32.71;;;17.67;;
15516;SDS011;7860;52.030;5.572;2022-11-15T04:33:00;35.37;;;18.38;;
15516;SDS011;7860;52.030;5.572;2022-11-15T04:34:01;33.05;;;18.73;;
15516;SDS011;7860;52.030;5.572;2022-11-15T04:35:01;33.77;;;18.67;;
15516;SDS011;7860;52.030;5.572;2022-11-15T04:36:01;33.74;;;18.28;;
15516;SDS011;7860;52.030;5.572;2022-11-15T04:37:01;33.90;;;18.40;;
15516;SDS011;7860;52.030;5.572;2022-11-15T04:38:03;38.36;;;18.60;;
15516;SDS011;7860;52.030;5.572;2022-11-15T04:39:02;35.44;;;18.76;;
15516;SDS011;7860;52.030;5.572;2022-11-15T04:40:03;34.54;;;18.35;;
15516;SDS011;7860;52.030;5.572;2022-11-15T04:41:02;35.47;;;17.73;;
15516;SDS011;7860;52.030;5.572;2022-11-15T04:42:03;33.40;;;18.23;;
15516;SDS011;7860;52.030;5.572;2022-11-15T04:43:03;34.30;;;18.62;;
15516;SDS011;7860;52.030;5.572;2022-11-15T04:44:03;35.60;;;18.39;;
15516;SDS011;7860;52.030;5.572;2022-11-15T04:45:04;36.15;;;18.52;;
15516;SDS011;7860;52.030;5.572;2022-11-15T04:46:04;32.74;;;18.81;;
15516;SDS011;7860;52.030;5.572;2022-11-15T04:47:04;33.54;;;18.33;;
15516;SDS011;7860;52.030;5.572;2022-11-15T04:48:05;37.86;;;19.27;;
15516;SDS011;7860;52.030;5.572;2022-11-15T04:49:05;32.43;;;18.57;;
15516;SDS011;7860;52.030;5.572;2022-11-15T04:50:05;32.11;;;18.40;;
15516;SDS011;7860;52.030;5.572;2022-11-15T04:51:06;34.62;;;17.94;;
15516;SDS011;7860;52.030;5.572;2022-11-15T04:52:07;36.40;;;19.33;;
15516;SDS011;7860;52.030;5.572;2022-11-15T04:53:07;33.70;;;18.66;;
15516;SDS011;7860;52.030;5.572;2022-11-15T04:54:07;36.51;;;19.39;;
15516;SDS011;7860;52.030;5.572;2022-11-15T04:55:08;35.34;;;19.03;;
15516;SDS011;7860;52.030;5.572;2022-11-15T04:56:08;35.85;;;18.85;;
15516;SDS011;7860;52.030;5.572;2022-11-15T04:57:08;36.49;;;19.58;;
15516;SDS011;7860;52.030;5.572;2022-11-15T04:58:09;35.84;;;19.96;;
15516;SDS011;7860;52.030;5.572;2022-11-15T04:59:09;36.20;;;18.11;;
15516;SDS011;7860;52.030;5.572;2022-11-15T05:00:11;34.22;;;19.15;;
15516;SDS011;7860;52.030;5.572;2022-11-15T05:01:11;37.04;;;18.78;;
15516;SDS011;7860;52.030;5.572;2022-11-15T05:02:11;32.80;;;18.87;;
15516;SDS011;7860;52.030;5.572;2022-11-15T05:03:12;33.03;;;18.60;;
15516;SDS011;7860;52.030;5.572;2022-11-15T05:04:12;33.65;;;18.65;;
15516;SDS011;7860;52.030;5.572;2022-11-15T05:05:13;37.10;;;19.04;;
15516;SDS011;7860;52.030;5.572;2022-11-15T05:06:13;35.07;;;18.37;;
15516;SDS011;7860;52.030;5.572;2022-11-15T05:07:14;35.56;;;19.11;;
15516;SDS011;7860;52.030;5.572;2022-11-15T05:08:14;35.84;;;19.60;;
15516;SDS011;7860;52.030;5.572;2022-11-15T05:09:14;37.81;;;20.33;;
15516;SDS011;7860;52.030;5.572;2022-11-15T05:10:14;38.27;;;19.63;;
15516;SDS011;7860;52.030;5.572;2022-11-15T05:11:15;37.97;;;19.53;;
15516;SDS011;7860;52.030;5.572;2022-11-15T05:12:15;37.17;;;20.12;;
15516;SDS011;7860;52.030;5.572;2022-11-15T05:13:15;38.54;;;19.91;;
15516;SDS011;7860;52.030;5.572;2022-11-15T05:14:15;37.57;;;19.56;;
15516;SDS011;7860;52.030;5.572;2022-11-15T05:15:15;33.69;;;19.13;;
15516;SDS011;7860;52.030;5.572;2022-11-15T05:16:16;34.83;;;18.80;;
15516;SDS011;7860;52.030;5.572;2022-11-15T05:17:16;37.45;;;19.35;;
15516;SDS011;7860;52.030;5.572;2022-11-15T05:18:16;36.46;;;20.03;;
15516;SDS011;7860;52.030;5.572;2022-11-15T05:19:16;35.91;;;18.68;;
15516;SDS011;7860;52.030;5.572;2022-11-15T05:20:17;36.02;;;18.70;;
15516;SDS011;7860;52.030;5.572;2022-11-15T05:21:17;36.03;;;18.98;;
15516;SDS011;7860;52.030;5.572;2022-11-15T05:22:18;38.47;;;19.17;;
15516;SDS011;7860;52.030;5.572;2022-11-15T05:23:17;36.08;;;19.11;;
15516;SDS011;7860;52.030;5.572;2022-11-15T05:24:18;35.67;;;18.98;;
15516;SDS011;7860;52.030;5.572;2022-11-15T05:25:18;35.49;;;19.47;;
15516;SDS011;7860;52.030;5.572;2022-11-15T05:26:18;35.33;;;19.19;;
15516;SDS011;7860;52.030;5.572;2022-11-15T05:27:18;37.96;;;19.23;;
15516;SDS011;7860;52.030;5.572;2022-11-15T05:28:19;38.20;;;19.59;;
15516;SDS011;7860;52.030;5.572;2022-11-15T05:29:19;35.96;;;19.30;;
15516;SDS011;7860;52.030;5.572;2022-11-15T05:30:19;36.46;;;19.60;;
15516;SDS011;7860;52.030;5.572;2022-11-15T05:31:20;35.81;;;19.79;;
15516;SDS011;7860;52.030;5.572;2022-11-15T05:32:20;37.52;;;18.48;;
15516;SDS011;7860;52.030;5.572;2022-11-15T05:33:21;34.60;;;19.41;;
15516;SDS011;7860;52.030;5.572;2022-11-15T05:34:21;36.34;;;19.28;;
15516;SDS011;7860;52.030;5.572;2022-11-15T05:35:24;37.15;;;19.64;;
15516;SDS011;7860;52.030;5.572;2022-11-15T05:36:24;36.41;;;19.39;;
15516;SDS011;7860;52.030;5.572;2022-11-15T05:37:21;35.00;;;18.93;;
15516;SDS011;7860;52.030;5.572;2022-11-15T05:38:23;37.77;;;18.80;;
15516;SDS011;7860;52.030;5.572;2022-11-15T05:39:22;33.49;;;19.02;;
15516;SDS011;7860;52.030;5.572;2022-11-15T05:40:23;35.88;;;19.46;;
15516;SDS011;7860;52.030;5.572;2022-11-15T05:41:25;33.96;;;19.38;;
15516;SDS011;7860;52.030;5.572;2022-11-15T05:42:24;38.51;;;18.60;;
15516;SDS011;7860;52.030;5.572;2022-11-15T05:43:24;37.61;;;19.56;;
15516;SDS011;7860;52.030;5.572;2022-11-15T05:44:24;37.09;;;19.21;;
15516;SDS011;7860;52.030;5.572;2022-11-15T05:45:25;35.94;;;20.17;;
15516;SDS011;7860;52.030;5.572;2022-11-15T05:46:26;35.67;;;19.56;;
15516;SDS011;7860;52.030;5.572;2022-11-15T05:47:27;37.20;;;18.94;;
15516;SDS011;7860;52.030;5.572;2022-11-15T05:48:26;36.75;;;19.78;;
15516;SDS011;7860;52.030;5.572;2022-11-15T05:49:27;37.34;;;19.68;;
15516;SDS011;7860;52.030;5.572;2022-11-15T05:50:27;34.39;;;19.01;;
15516;SDS011;7860;52.030;5.572;2022-11-15T05:51:27;37.40;;;19.03;;
15516;SDS011;7860;52.030;5.572;2022-11-15T05:52:29;38.08;;;20.21;;
15516;SDS011;7860;52.030;5.572;2022-11-15T05:53:29;35.15;;;18.74;;
15516;SDS011;7860;52.030;5.572;2022-11-15T05:54:29;37.07;;;19.04;;
15516;SDS011;7860;52.030;5.572;2022-11-15T05:55:29;36.91;;;19.34;;
15516;SDS011;7860;52.030;5.572;2022-11-15T05:56:29;36.58;;;18.99;;
15516;SDS011;7860;52.030;5.572;2022-11-15T05:57:30;34.25;;;19.06;;
15516;SDS011;7860;52.030;5.572;2022-11-15T05:58:30;36.06;;;19.76;;